Time;durP1;ratioP1;P1;durP2;ratioP2;P2;SDS_P1;SDS_P2;PMS_P1;PMS_P2;Temp;Humidity;BMP_temperature;BMP_pressure;BME280_temperature;BME280_humidity;BME280_pressure;Samples;Min_cycle;Max_cycle;Signal;HPM_P1;HPM_P2
2023/03/24 00:00:31;;;;;;;;;;;9.70;72.50;;;;;;4999111;28;93682;-38
2023/03/24 00:03:00;;;;;;;;;;;9.80;72.50;;;;;;5009896;28;95355;-38
2023/03/24 00:05:27;;;;;;;;;;;9.70;72.30;;;;;;5004982;28;92253;-38
2023/03/24 00:07:53;;;;;;;;;;;9.70;72.20;;;;;;5014533;28;93665;-39
2023/03/24 00:10:19;;;;;;;;;;;9.70;72.40;;;;;;5004599;28;94727;-39
2023/03/24 00:12:45;;;;;;;;;;;9.70;72.30;;;;;;5003197;28;92225;-38
2023/03/24 00:15:12;;;;;;;;;;;9.70;72.30;;;;;;4998095;28;93850;-39
2023/03/24 00:17:38;;;;;;;;;;;9.70;72.30;;;;;;5001938;28;93026;-39
2023/03/24 00:20:13;;;;;;;;;;;9.60;72.40;;;;;;5017705;28;92359;-38
2023/03/24 00:22:47;;;;;;;;;;;9.60;72.30;;;;;;4998480;28;94558;-39
2023/03/24 00:25:13;;;;;;;;;;;9.60;72.40;;;;;;4998864;28;92085;-39
2023/03/24 00:27:38;;;;;;;;;;;9.60;72.40;;;;;;5013273;28;92594;-38
2023/03/24 00:30:06;;;;;;;;;;;9.60;72.30;;;;;;5013213;28;94028;-38
2023/03/24 00:32:31;;;;;;;;;;;9.60;72.40;;;;;;5014429;28;92073;-38
2023/03/24 00:34:57;;;;;;;;;;;9.60;72.40;;;;;;5014652;28;93319;-39
2023/03/24 00:37:23;;;;;;;;;;;9.60;72.30;;;;;;5011338;28;94584;-38
2023/03/24 00:39:49;;;;;;;;;;;9.60;72.30;;;;;;5011169;28;93228;-39
2023/03/24 00:42:15;;;;;;;;;;;9.60;72.40;;;;;;5015616;28;96763;-39
2023/03/24 00:44:40;;;;;;;;;;;9.50;72.30;;;;;;5001957;28;92861;-39
2023/03/24 00:47:06;;;;;;;;;;;9.50;72.30;;;;;;5013151;28;94167;-38
2023/03/24 00:49:41;;;;;;;;;;;9.50;72.20;;;;;;5016718;28;94959;-38
2023/03/24 00:52:20;;;;;;;;;;;9.50;72.40;;;;;;5002098;28;92060;-38
2023/03/24 00:54:46;;;;;;;;;;;9.50;72.30;;;;;;5001942;28;92952;-39
2023/03/24 00:57:13;;;;;;;;;;;9.50;72.30;;;;;;5016710;28;93610;-38
2023/03/24 00:59:47;;;;;;;;;;;9.50;72.30;;;;;;5017157;28;92208;-39
2023/03/24 01:02:13;;;;;;;;;;;9.50;72.30;;;;;;5001866;28;93676;-39
2023/03/24 01:04:39;;;;;;;;;;;9.50;72.20;;;;;;5003455;28;94153;-39
2023/03/24 01:07:06;;;;;;;;;;;9.40;72.10;;;;;;5013929;28;94779;-38
2023/03/24 01:09:35;;;;;;;;;;;9.40;72.20;;;;;;5017346;28;93715;-38
2023/03/24 01:12:02;;;;;;;;;;;9.40;72.30;;;;;;5015931;28;92285;-39
2023/03/24 01:14:28;;;;;;;;;;;9.40;72.30;;;;;;5016089;28;94506;-39
2023/03/24 01:16:54;;;;;;;;;;;9.40;72.20;;;;;;5016993;28;93042;-39
2023/03/24 01:19:20;;;;;;;;;;;9.40;72.20;;;;;;5007588;28;92167;-39
2023/03/24 01:21:47;;;;;;;;;;;9.40;72.20;;;;;;5017976;28;93366;-39
2023/03/24 01:24:12;;;;;;;;;;;9.40;72.20;;;;;;5015877;28;94710;-39
2023/03/24 01:26:38;;;;;;;;;;;9.30;72.20;;;;;;5013242;28;92122;-39
2023/03/24 01:29:04;;;;;;;;;;;9.30;72.20;;;;;;5014652;28;94130;-38
2023/03/24 01:31:30;;;;;;;;;;;9.30;72.20;;;;;;5016966;28;92202;-39
2023/03/24 01:33:55;;;;;;;;;;;9.30;72.20;;;;;;5018009;28;93760;-38
2023/03/24 01:36:21;;;;;;;;;;;9.30;72.20;;;;;;5007472;28;94074;-38
2023/03/24 01:38:47;;;;;;;;;;;9.30;72.20;;;;;;5001260;28;92289;-38
2023/03/24 01:41:12;;;;;;;;;;;9.30;72.10;;;;;;5015218;28;94075;-38
2023/03/24 01:43:38;;;;;;;;;;;9.30;72.20;;;;;;5004626;28;93215;-39
2023/03/24 01:46:06;;;;;;;;;;;9.30;72.20;;;;;;5001463;28;91818;-38
2023/03/24 01:48:58;;;;;;;;;;;9.30;72.10;;;;;;5003814;28;92166;-38
2023/03/24 01:51:30;;;;;;;;;;;9.20;72.10;;;;;;5011200;28;92429;-39
2023/03/24 01:54:04;;;;;;;;;;;9.20;72.00;;;;;;4999909;28;93990;-39
2023/03/24 01:56:31;;;;;;;;;;;9.20;72.10;;;;;;5014293;28;94382;-38
2023/03/24 01:59:05;;;;;;;;;;;9.20;72.00;;;;;;5018659;28;92609;-38
2023/03/24 02:01:31;;;;;;;;;;;9.20;72.10;;;;;;5016487;28;93907;-38
2023/03/24 02:03:57;;;;;;;;;;;9.20;72.10;;;;;;5000298;28;94495;-39
2023/03/24 02:06:24;;;;;;;;;;;9.20;72.10;;;;;;5005135;28;92458;-38
2023/03/24 02:08:52;;;;;;;;;;;9.20;72.10;;;;;;5013622;28;93751;-38
2023/03/24 02:11:20;;;;;;;;;;;9.10;71.90;;;;;;5001309;28;91561;-38
2023/03/24 02:13:45;;;;;;;;;;;9.10;71.90;;;;;;5000871;28;92190;-38
2023/03/24 02:16:17;;;;;;;;;;;9.10;72.00;;;;;;4999753;28;94585;-38
2023/03/24 02:18:51;;;;;;;;;;;9.10;72.00;;;;;;5000170;28;93069;-39
2023/03/24 02:21:25;;;;;;;;;;;9.10;72.10;;;;;;5004328;28;94558;-39
2023/03/24 02:23:58;;;;;;;;;;;9.10;72.10;;;;;;5011051;28;93024;-38
2023/03/24 02:26:23;;;;;;;;;;;9.10;72.10;;;;;;5016750;28;92322;-38
2023/03/24 02:28:49;;;;;;;;;;;9.10;72.10;;;;;;5016978;28;93944;-39
2023/03/24 02:31:23;;;;;;;;;;;9.10;72.10;;;;;;5005928;28;95075;-39
2023/03/24 02:34:01;;;;;;;;;;;9.00;71.90;;;;;;5000393;28;93734;-38
2023/03/24 02:36:32;;;;;;;;;;;9.00;72.00;;;;;;5012171;28;93906;-38
2023/03/24 02:39:13;;;;;;;;;;;9.00;72.00;;;;;;5014500;28;92528;-39
2023/03/24 02:41:41;;;;;;;;;;;9.00;71.80;;;;;;5019076;28;93806;-39
2023/03/24 02:44:24;;;;;;;;;;;9.00;72.00;;;;;;5014719;28;94197;-39
2023/03/24 02:46:53;;;;;;;;;;;9.00;72.00;;;;;;5017661;28;92147;-39
2023/03/24 02:49:28;;;;;;;;;;;9.00;71.90;;;;;;5015122;28;93786;-39
2023/03/24 02:51:54;;;;;;;;;;;8.90;71.80;;;;;;4999664;28;94230;-39
2023/03/24 02:54:49;;;;;;;;;;;8.90;72.00;;;;;;5003071;28;92209;-39
2023/03/24 02:57:32;;;;;;;;;;;8.90;71.80;;;;;;5001825;28;94387;-39
2023/03/24 03:00:08;;;;;;;;;;;8.90;71.90;;;;;;5014863;28;92287;-38
2023/03/24 03:02:36;;;;;;;;;;;8.90;71.90;;;;;;5014235;28;93930;-38
2023/03/24 03:05:07;;;;;;;;;;;8.90;71.90;;;;;;5015248;28;93040;-38
2023/03/24 03:07:36;;;;;;;;;;;8.90;71.90;;;;;;5012368;28;92128;-39
2023/03/24 03:10:15;;;;;;;;;;;8.90;71.90;;;;;;5003407;28;93955;-39
2023/03/24 03:12:41;;;;;;;;;;;8.80;71.80;;;;;;5002459;28;94499;-39
2023/03/24 03:15:09;;;;;;;;;;;8.80;71.90;;;;;;5004177;28;92155;-38
2023/03/24 03:17:41;;;;;;;;;;;8.80;71.80;;;;;;5002261;28;94822;-38
2023/03/24 03:20:13;;;;;;;;;;;8.80;71.80;;;;;;4999495;28;92167;-38
2023/03/24 03:22:45;;;;;;;;;;;8.80;71.80;;;;;;4999317;28;93735;-38
2023/03/24 03:25:12;;;;;;;;;;;8.80;71.90;;;;;;5008556;28;94589;-39
2023/03/24 03:27:39;;;;;;;;;;;8.80;71.80;;;;;;5013915;28;91540;-38
2023/03/24 03:30:07;;;;;;;;;;;8.80;71.80;;;;;;5016445;28;92733;-38
2023/03/24 03:32:37;;;;;;;;;;;8.80;71.80;;;;;;4998750;28;94446;-38
2023/03/24 03:35:15;;;;;;;;;;;8.70;71.80;;;;;;4998638;28;93830;-39
2023/03/24 03:37:43;;;;;;;;;;;8.70;71.80;;;;;;4999258;28;93584;-38
2023/03/24 03:40:21;;;;;;;;;;;8.70;71.70;;;;;;5010567;28;94282;-39
2023/03/24 03:42:47;;;;;;;;;;;8.70;71.70;;;;;;5010472;28;92934;-38
2023/03/24 03:45:13;;;;;;;;;;;8.70;71.80;;;;;;5006864;28;94769;-38
2023/03/24 03:47:39;;;;;;;;;;;8.70;71.90;;;;;;4999471;28;92215;-38
2023/03/24 03:50:06;;;;;;;;;;;8.70;71.80;;;;;;4999312;28;93804;-38
2023/03/24 03:52:31;;;;;;;;;;;8.70;71.80;;;;;;4999005;28;93668;-38
2023/03/24 03:54:57;;;;;;;;;;;8.60;72.40;;;;;;4999142;28;92275;-38
2023/03/24 03:57:23;;;;;;;;;;;8.60;71.70;;;;;;5016463;28;96062;-38
2023/03/24 03:59:48;;;;;;;;;;;8.60;71.80;;;;;;5013485;28;95428;-39
2023/03/24 04:02:23;;;;;;;;;;;8.60;71.70;;;;;;5001973;28;92904;-39
2023/03/24 04:04:57;;;;;;;;;;;8.60;71.90;;;;;;4998035;28;94283;-38
2023/03/24 04:07:32;;;;;;;;;;;8.60;71.80;;;;;;5012293;28;92182;-38
2023/03/24 04:10:07;;;;;;;;;;;8.60;71.80;;;;;;5014453;28;92423;-39
2023/03/24 04:12:41;;;;;;;;;;;8.60;71.80;;;;;;5013178;28;92933;-38
2023/03/24 04:15:22;;;;;;;;;;;8.60;71.80;;;;;;5012883;28;92239;-39
2023/03/24 04:17:53;;;;;;;;;;;8.60;71.70;;;;;;5015817;28;93853;-39
2023/03/24 04:20:23;;;;;;;;;;;8.50;71.80;;;;;;5008917;28;94528;-39
2023/03/24 04:23:08;;;;;;;;;;;8.50;71.80;;;;;;5005089;28;92209;-38
2023/03/24 04:25:43;;;;;;;;;;;8.50;72.30;;;;;;5016913;28;95340;-39
2023/03/24 04:28:13;;;;;;;;;;;8.50;71.90;;;;;;5001644;28;92161;-39
2023/03/24 04:30:43;;;;;;;;;;;8.50;71.80;;;;;;5002266;28;93607;-38
2023/03/24 04:33:23;;;;;;;;;;;8.50;71.80;;;;;;5001631;28;94496;-39
2023/03/24 04:35:54;;;;;;;;;;;8.50;71.80;;;;;;5007359;28;92491;-38
2023/03/24 04:38:32;;;;;;;;;;;8.40;71.80;;;;;;5019103;28;93389;-38
2023/03/24 04:40:58;;;;;;;;;;;8.40;71.80;;;;;;5016381;28;94476;-39
2023/03/24 04:43:26;;;;;;;;;;;8.40;71.80;;;;;;5018180;28;91459;-39
2023/03/24 04:45:56;;;;;;;;;;;8.40;71.70;;;;;;5019709;28;92767;-39
2023/03/24 04:48:22;;;;;;;;;;;8.40;71.80;;;;;;5017959;28;92981;-39
2023/03/24 04:50:58;;;;;;;;;;;8.40;72.10;;;;;;5014997;28;93618;-39
2023/03/24 04:53:24;;;;;;;;;;;8.40;71.80;;;;;;5005354;28;94123;-39
2023/03/24 04:55:57;;;;;;;;;;;8.40;71.90;;;;;;5001679;28;92241;-39
2023/03/24 04:58:23;;;;;;;;;;;8.40;71.90;;;;;;5010414;28;93903;-38
2023/03/24 05:00:49;;;;;;;;;;;8.40;71.80;;;;;;5001024;28;94966;-38
2023/03/24 05:03:15;;;;;;;;;;;8.40;71.80;;;;;;5001602;28;92129;-38
2023/03/24 05:05:41;;;;;;;;;;;8.40;71.80;;;;;;5017956;28;94193;-38
2023/03/24 05:08:07;;;;;;;;;;;8.30;71.70;;;;;;5004469;28;93643;-39
2023/03/24 05:10:33;;;;;;;;;;;8.30;71.70;;;;;;5001930;28;93000;-39
2023/03/24 05:12:58;;;;;;;;;;;8.30;71.70;;;;;;5014047;28;93937;-38
2023/03/24 05:15:24;;;;;;;;;;;8.30;71.60;;;;;;5019640;28;93141;-38
2023/03/24 05:17:51;;;;;;;;;;;8.30;71.70;;;;;;5017729;28;94731;-38
2023/03/24 05:20:16;;;;;;;;;;;8.30;71.70;;;;;;5000780;28;95112;-38
2023/03/24 05:22:42;;;;;;;;;;;8.30;71.70;;;;;;5001288;28;92750;-38
2023/03/24 05:25:08;;;;;;;;;;;8.30;71.70;;;;;;5001416;28;93705;-38
2023/03/24 05:27:33;;;;;;;;;;;8.30;71.70;;;;;;5015245;28;94701;-39
2023/03/24 05:29:59;;;;;;;;;;;8.20;71.70;;;;;;5004340;28;92245;-38
2023/03/24 05:32:25;;;;;;;;;;;8.20;71.70;;;;;;5015881;28;93584;-39
2023/03/24 05:34:50;;;;;;;;;;;8.30;71.70;;;;;;5001033;28;92212;-39
2023/03/24 05:37:16;;;;;;;;;;;8.30;72.20;;;;;;5000873;28;93936;-39
2023/03/24 05:39:42;;;;;;;;;;;8.30;71.50;;;;;;4999834;28;95700;-38
2023/03/24 05:42:08;;;;;;;;;;;8.30;71.70;;;;;;5001226;28;92985;-39
2023/03/24 05:44:34;;;;;;;;;;;8.20;71.40;;;;;;5000981;28;93672;-38
2023/03/24 05:47:00;;;;;;;;;;;8.30;71.60;;;;;;5000738;28;94431;-38
2023/03/24 05:49:25;;;;;;;;;;;8.20;71.40;;;;;;5000997;28;92260;-38
2023/03/24 05:51:51;;;;;;;;;;;8.30;71.60;;;;;;5004405;28;93744;-38
2023/03/24 05:54:16;;;;;;;;;;;8.20;71.40;;;;;;5001166;28;92251;-38
2023/03/24 05:56:42;;;;;;;;;;;8.20;71.50;;;;;;5001287;28;93901;-38
2023/03/24 05:59:07;;;;;;;;;;;8.20;71.60;;;;;;5013898;28;93464;-39
2023/03/24 06:01:33;;;;;;;;;;;8.20;71.50;;;;;;5006352;28;93118;-38
2023/03/24 06:03:58;;;;;;;;;;;8.20;71.60;;;;;;5000403;28;93798;-38
2023/03/24 06:06:25;;;;;;;;;;;8.20;71.50;;;;;;5000155;28;94314;-38
2023/03/24 06:08:53;;;;;;;;;;;8.20;71.50;;;;;;5000731;28;92446;-38
2023/03/24 06:11:19;;;;;;;;;;;8.20;71.40;;;;;;5004940;28;94333;-38
2023/03/24 06:13:44;;;;;;;;;;;8.20;71.50;;;;;;5000342;28;92125;-38
2023/03/24 06:16:10;;;;;;;;;;;8.20;71.40;;;;;;5000596;28;94161;-38
2023/03/24 06:18:39;;;;;;;;;;;8.20;71.60;;;;;;4999852;28;94296;-38
2023/03/24 06:21:05;;;;;;;;;;;8.20;71.50;;;;;;5000815;28;91418;-38
2023/03/24 06:23:32;;;;;;;;;;;8.20;71.60;;;;;;5000515;28;93040;-38
2023/03/24 06:26:00;;;;;;;;;;;8.20;71.60;;;;;;5005998;28;93198;-38
2023/03/24 06:28:29;;;;;;;;;;;8.20;71.60;;;;;;5003717;28;93273;-38
2023/03/24 06:30:55;;;;;;;;;;;8.20;71.60;;;;;;5017701;28;94725;-38
2023/03/24 06:33:24;;;;;;;;;;;8.20;71.70;;;;;;5016704;28;94697;-39
2023/03/24 06:35:52;;;;;;;;;;;8.10;71.60;;;;;;5014915;28;94343;-39
2023/03/24 06:38:18;;;;;;;;;;;8.20;71.60;;;;;;5016758;28;94488;-39
2023/03/24 06:40:43;;;;;;;;;;;8.20;71.70;;;;;;5016545;28;92839;-39
2023/03/24 06:43:09;;;;;;;;;;;8.20;71.80;;;;;;5015945;28;93924;-38
2023/03/24 06:45:35;;;;;;;;;;;8.20;71.70;;;;;;5018662;28;92581;-38
2023/03/24 06:48:01;;;;;;;;;;;8.20;71.80;;;;;;4999997;28;92273;-38
2023/03/24 06:50:31;;;;;;;;;;;8.20;71.80;;;;;;5010310;28;94462;-39
2023/03/24 06:52:58;;;;;;;;;;;8.20;71.70;;;;;;5003311;28;95314;-38
2023/03/24 06:55:23;;;;;;;;;;;8.20;71.80;;;;;;5018546;28;92188;-39
2023/03/24 06:57:48;;;;;;;;;;;8.20;71.80;;;;;;5015954;28;94482;-38
2023/03/24 07:00:15;;;;;;;;;;;8.20;71.80;;;;;;5014125;28;92909;-39
2023/03/24 07:02:41;;;;;;;;;;;8.20;71.80;;;;;;5013287;28;94695;-38
2023/03/24 07:05:08;;;;;;;;;;;8.20;71.80;;;;;;5015904;28;94290;-39
2023/03/24 07:07:34;;;;;;;;;;;8.20;71.80;;;;;;5017220;28;92849;-39
2023/03/24 07:10:00;;;;;;;;;;;8.20;71.80;;;;;;5006745;28;93872;-39
2023/03/24 07:12:26;;;;;;;;;;;8.20;71.80;;;;;;5015264;28;94959;-38
2023/03/24 07:14:52;;;;;;;;;;;8.20;71.80;;;;;;5017736;28;92161;-38
2023/03/24 07:17:17;;;;;;;;;;;8.20;71.90;;;;;;5017188;28;93962;-38
2023/03/24 07:19:44;;;;;;;;;;;8.20;71.90;;;;;;5013808;28;92185;-38
2023/03/24 07:22:10;;;;;;;;;;;8.20;71.90;;;;;;5008201;28;93709;-39
2023/03/24 07:24:36;;;;;;;;;;;8.20;72.50;;;;;;5013513;28;94292;-38
2023/03/24 07:27:02;;;;;;;;;;;8.20;71.90;;;;;;5015297;28;92245;-38
2023/03/24 07:29:27;;;;;;;;;;;8.20;71.90;;;;;;5015490;28;93094;-38
2023/03/24 07:31:53;;;;;;;;;;;8.20;71.90;;;;;;5015777;28;94382;-38
2023/03/24 07:34:19;;;;;;;;;;;8.20;71.90;;;;;;5000262;28;91497;-38
2023/03/24 07:36:45;;;;;;;;;;;8.20;71.90;;;;;;5002386;28;93157;-38
2023/03/24 07:39:12;;;;;;;;;;;8.20;71.90;;;;;;5016665;28;93151;-39
2023/03/24 07:41:37;;;;;;;;;;;8.20;71.90;;;;;;5016535;28;93736;-38
2023/03/24 07:44:03;;;;;;;;;;;8.20;71.90;;;;;;5013925;28;94511;-38
2023/03/24 07:46:28;;;;;;;;;;;8.20;72.00;;;;;;4999792;28;92180;-38
2023/03/24 07:48:54;;;;;;;;;;;8.20;72.00;;;;;;5010995;28;94155;-38
2023/03/24 07:51:20;;;;;;;;;;;8.20;72.00;;;;;;5019806;28;94497;-38
2023/03/24 07:53:46;;;;;;;;;;;8.20;72.00;;;;;;5022815;28;92159;-38
2023/03/24 07:56:12;;;;;;;;;;;8.20;71.90;;;;;;5020649;28;93896;-38
2023/03/24 07:58:37;;;;;;;;;;;8.20;72.00;;;;;;5022646;28;93591;-39
2023/03/24 08:01:05;;;;;;;;;;;8.20;72.10;;;;;;5017497;28;92686;-38
2023/03/24 08:03:30;;;;;;;;;;;8.20;72.20;;;;;;5007572;28;95139;-38
2023/03/24 08:05:56;;;;;;;;;;;8.20;72.10;;;;;;5004734;28;94032;-38
2023/03/24 08:08:21;;;;;;;;;;;8.20;72.20;;;;;;5005774;28;94308;-38
2023/03/24 08:10:49;;;;;;;;;;;8.20;72.20;;;;;;5019069;28;93842;-38
2023/03/24 08:13:14;;;;;;;;;;;8.20;72.20;;;;;;5005731;28;92252;-38
2023/03/24 08:15:40;;;;;;;;;;;8.20;72.20;;;;;;5005589;28;93672;-39
2023/03/24 08:18:05;;;;;;;;;;;8.20;72.20;;;;;;5004951;28;93294;-38
2023/03/24 08:20:31;;;;;;;;;;;8.20;72.20;;;;;;5008493;28;92123;-38
2023/03/24 08:22:56;;;;;;;;;;;8.20;72.20;;;;;;5005128;28;94265;-38
2023/03/24 08:25:23;;;;;;;;;;;8.30;72.20;;;;;;5005602;28;92824;-38
2023/03/24 08:27:49;;;;;;;;;;;8.20;72.20;;;;;;5006445;28;94003;-39
2023/03/24 08:30:16;;;;;;;;;;;8.30;72.30;;;;;;5022027;28;95747;-38
2023/03/24 08:32:43;;;;;;;;;;;8.30;72.20;;;;;;5017131;28;92219;-39
2023/03/24 08:35:13;;;;;;;;;;;8.30;72.20;;;;;;5005854;28;92840;-38
2023/03/24 08:37:41;;;;;;;;;;;8.30;72.20;;;;;;5004843;28;95026;-39
2023/03/24 08:40:12;;;;;;;;;;;8.30;72.20;;;;;;5005042;28;92113;-39
2023/03/24 08:42:39;;;;;;;;;;;8.30;72.20;;;;;;5021518;28;94454;-39
2023/03/24 08:45:05;;;;;;;;;;;8.30;72.20;;;;;;5004913;28;92933;-39
2023/03/24 08:47:31;;;;;;;;;;;8.30;72.20;;;;;;5005579;28;93921;-38
2023/03/24 08:49:57;;;;;;;;;;;8.40;72.20;;;;;;5004638;28;94545;-38
2023/03/24 08:52:22;;;;;;;;;;;8.30;72.10;;;;;;5014996;28;92156;-38
2023/03/24 08:54:48;;;;;;;;;;;8.40;72.20;;;;;;5004485;28;93810;-39
2023/03/24 08:57:13;;;;;;;;;;;8.40;72.30;;;;;;5004533;28;93473;-38
2023/03/24 08:59:39;;;;;;;;;;;8.40;72.20;;;;;;5013002;28;92175;-39
2023/03/24 09:02:04;;;;;;;;;;;8.40;72.20;;;;;;5017877;28;93537;-39
2023/03/24 09:04:30;;;;;;;;;;;8.40;72.30;;;;;;5020586;28;92214;-39
2023/03/24 09:06:58;;;;;;;;;;;8.40;72.20;;;;;;5016517;28;94421;-38
2023/03/24 09:09:24;;;;;;;;;;;8.40;72.20;;;;;;5017932;28;94445;-39
2023/03/24 09:11:50;;;;;;;;;;;8.50;72.20;;;;;;5001955;28;91970;-39
2023/03/24 09:14:15;;;;;;;;;;;8.40;72.30;;;;;;5016112;28;93006;-39
2023/03/24 09:16:42;;;;;;;;;;;8.50;72.20;;;;;;5017809;28;94576;-39
2023/03/24 09:19:08;;;;;;;;;;;8.50;72.20;;;;;;5001155;28;93197;-39
2023/03/24 09:21:34;;;;;;;;;;;8.50;72.10;;;;;;5001505;28;94846;-39
2023/03/24 09:24:00;;;;;;;;;;;8.60;72.10;;;;;;5000713;28;94575;-38
2023/03/24 09:26:25;;;;;;;;;;;8.60;72.10;;;;;;5004445;28;92865;-38
2023/03/24 09:28:51;;;;;;;;;;;8.50;72.10;;;;;;5000192;28;94323;-39
2023/03/24 09:31:16;;;;;;;;;;;8.60;72.20;;;;;;5002273;28;92711;-39
2023/03/24 09:33:42;;;;;;;;;;;8.60;72.80;;;;;;5001428;28;92437;-38
2023/03/24 09:36:08;;;;;;;;;;;8.60;72.70;;;;;;5001234;28;93712;-39
2023/03/24 09:38:34;;;;;;;;;;;8.60;72.70;;;;;;5006571;28;92180;-39
2023/03/24 09:41:01;;;;;;;;;;;8.60;72.30;;;;;;5017488;28;95361;-38
2023/03/24 09:43:59;;;;;;;;;;;8.70;72.30;;;;;;5013755;28;95971;-38
2023/03/24 09:46:27;;;;;;;;;;;8.70;72.50;;;;;;4981697;28;92212;-39
2023/03/24 09:48:54;;;;;;;;;;;8.70;72.30;;;;;;5016497;28;92954;-38
2023/03/24 09:51:23;;;;;;;;;;;8.70;72.30;;;;;;5005097;28;92173;-39
2023/03/24 09:53:54;;;;;;;;;;;8.70;72.50;;;;;;5000718;28;93713;-39
2023/03/24 09:56:21;;;;;;;;;;;8.70;72.50;;;;;;5007983;28;93731;-38
2023/03/24 09:58:57;;;;;;;;;;;8.80;72.80;;;;;;5016646;28;92183;-38
2023/03/24 10:01:22;;;;;;;;;;;8.80;72.60;;;;;;5015921;28;92400;-38
2023/03/24 10:03:48;;;;;;;;;;;8.80;72.40;;;;;;5014019;28;94679;-39
2023/03/24 10:06:21;;;;;;;;;;;8.80;72.50;;;;;;5013907;28;92129;-38
2023/03/24 10:09:13;;;;;;;;;;;8.80;73.20;;;;;;5002638;28;94304;-37
2023/03/24 10:11:51;;;;;;;;;;;8.90;73.30;;;;;;5015344;28;94561;-38
2023/03/24 10:14:31;;;;;;;;;;;8.90;72.90;;;;;;5014055;28;94052;-39
2023/03/24 10:17:00;;;;;;;;;;;8.90;72.70;;;;;;5015494;28;95317;-39
2023/03/24 10:19:28;;;;;;;;;;;8.90;72.60;;;;;;5015576;28;92173;-38
2023/03/24 10:22:04;;;;;;;;;;;8.90;72.50;;;;;;5002784;28;92865;-38
2023/03/24 10:24:41;;;;;;;;;;;9.00;73.10;;;;;;5012560;28;94428;-38
2023/03/24 10:27:28;;;;;;;;;;;9.00;72.90;;;;;;5013395;28;92813;-38
2023/03/24 10:29:59;;;;;;;;;;;9.00;72.80;;;;;;5015452;28;93343;-39
2023/03/24 10:32:27;;;;;;;;;;;9.10;72.70;;;;;;5003194;28;94405;-38
2023/03/24 10:34:56;;;;;;;;;;;9.10;72.60;;;;;;4999833;28;93851;-38
2023/03/24 10:37:21;;;;;;;;;;;9.10;72.70;;;;;;5000152;28;94191;-38
2023/03/24 10:39:47;;;;;;;;;;;9.10;72.60;;;;;;5008138;28;93027;-38
2023/03/24 10:42:24;;;;;;;;;;;9.10;72.50;;;;;;5016277;28;93875;-38
2023/03/24 10:44:50;;;;;;;;;;;9.20;72.80;;;;;;4999740;28;94449;-39
2023/03/24 10:47:18;;;;;;;;;;;9.20;72.90;;;;;;4999842;28;92136;-38
2023/03/24 10:50:04;;;;;;;;;;;9.20;72.70;;;;;;5000263;28;93795;-38
2023/03/24 10:52:38;;;;;;;;;;;9.20;72.80;;;;;;5005217;28;93261;-39
2023/03/24 10:55:05;;;;;;;;;;;9.20;72.70;;;;;;5003131;28;92238;-38
2023/03/24 10:57:31;;;;;;;;;;;9.20;73.00;;;;;;4999417;28;94842;-38
2023/03/24 10:59:59;;;;;;;;;;;9.30;72.70;;;;;;4999443;28;93826;-39
2023/03/24 11:02:31;;;;;;;;;;;9.30;72.50;;;;;;4999712;28;94813;-39
2023/03/24 11:04:58;;;;;;;;;;;9.30;72.50;;;;;;4999177;28;94800;-38
2023/03/24 11:07:34;;;;;;;;;;;9.40;72.60;;;;;;4999681;28;92301;-39
2023/03/24 11:10:00;;;;;;;;;;;9.40;72.40;;;;;;5013650;28;93997;-39
2023/03/24 11:12:33;;;;;;;;;;;9.40;72.90;;;;;;5014606;28;93717;-39
2023/03/24 11:15:18;;;;;;;;;;;9.40;72.50;;;;;;4999932;28;92874;-39
2023/03/24 11:17:45;;;;;;;;;;;9.50;73.00;;;;;;5002775;28;93984;-39
2023/03/24 11:20:29;;;;;;;;;;;9.50;72.20;;;;;;5010234;28;92191;-38
2023/03/24 11:22:58;;;;;;;;;;;9.50;72.20;;;;;;5003202;28;93541;-39
2023/03/24 11:25:25;;;;;;;;;;;9.60;72.20;;;;;;4997626;28;95128;-39
2023/03/24 11:27:52;;;;;;;;;;;9.60;72.20;;;;;;5007986;28;92880;-40
2023/03/24 11:30:18;;;;;;;;;;;9.60;72.30;;;;;;4999207;28;93982;-39
2023/03/24 11:32:46;;;;;;;;;;;9.60;72.30;;;;;;5001259;28;94542;-38
2023/03/24 11:35:16;;;;;;;;;;;9.70;72.30;;;;;;4999534;28;92772;-38
2023/03/24 11:37:42;;;;;;;;;;;9.70;72.20;;;;;;5009543;28;94005;-38
2023/03/24 11:40:10;;;;;;;;;;;9.70;72.20;;;;;;5003317;28;93082;-39
2023/03/24 11:42:47;;;;;;;;;;;9.70;72.00;;;;;;4999516;28;93676;-38
2023/03/24 11:45:20;;;;;;;;;;;9.80;72.00;;;;;;5013885;28;94558;-39
2023/03/24 11:47:45;;;;;;;;;;;9.80;72.00;;;;;;5013792;28;92319;-38
2023/03/24 11:50:11;;;;;;;;;;;9.80;71.90;;;;;;5012109;28;93098;-39
2023/03/24 11:52:40;;;;;;;;;;;9.90;72.00;;;;;;5001775;28;94503;-39
2023/03/24 11:55:13;;;;;;;;;;;9.90;71.90;;;;;;5016053;28;92242;-38
2023/03/24 11:57:39;;;;;;;;;;;9.90;71.80;;;;;;5009723;28;93330;-39
2023/03/24 12:00:08;;;;;;;;;;;10.00;71.90;;;;;;5013301;28;94534;-39
2023/03/24 12:02:58;;;;;;;;;;;10.00;71.80;;;;;;5016932;28;92200;-38
2023/03/24 12:05:31;;;;;;;;;;;10.00;71.80;;;;;;5013119;28;94509;-38
2023/03/24 12:08:06;;;;;;;;;;;10.00;71.90;;;;;;5015065;28;91953;-39
2023/03/24 12:10:35;;;;;;;;;;;10.10;71.70;;;;;;4999256;28;93166;-38
2023/03/24 12:13:00;;;;;;;;;;;10.10;71.60;;;;;;5007097;28;94957;-39
2023/03/24 12:15:37;;;;;;;;;;;10.10;71.60;;;;;;5001974;28;93592;-39
2023/03/24 12:18:12;;;;;;;;;;;10.20;71.50;;;;;;5001627;28;95200;-39
2023/03/24 12:20:47;;;;;;;;;;;10.20;71.50;;;;;;4998237;28;94442;-38
2023/03/24 12:23:31;;;;;;;;;;;10.20;71.50;;;;;;4998540;28;92302;-38
2023/03/24 12:26:16;;;;;;;;;;;10.30;71.50;;;;;;5016116;28;93724;-39
2023/03/24 12:28:41;;;;;;;;;;;10.30;71.50;;;;;;5003153;28;92293;-39
2023/03/24 12:31:10;;;;;;;;;;;10.30;71.40;;;;;;4998866;28;94053;-38
2023/03/24 12:33:45;;;;;;;;;;;10.40;71.50;;;;;;5011547;28;93750;-38
2023/03/24 12:36:37;;;;;;;;;;;10.40;71.30;;;;;;5014876;28;92040;-38
2023/03/24 12:39:03;;;;;;;;;;;10.40;71.30;;;;;;5013674;28;93873;-38
2023/03/24 12:41:36;;;;;;;;;;;10.50;71.40;;;;;;5017758;28;95232;-38
2023/03/24 12:44:16;;;;;;;;;;;10.50;71.30;;;;;;5013407;28;92661;-39
2023/03/24 12:46:45;;;;;;;;;;;10.50;71.30;;;;;;5004527;28;93898;-39
2023/03/24 12:49:17;;;;;;;;;;;10.60;71.30;;;;;;5001980;28;92411;-39
2023/03/24 12:51:49;;;;;;;;;;;10.60;71.30;;;;;;5001897;28;94094;-39
2023/03/24 12:54:15;;;;;;;;;;;10.70;71.30;;;;;;5001894;28;93088;-39
2023/03/24 12:56:47;;;;;;;;;;;10.60;71.20;;;;;;5003294;28;92292;-39
2023/03/24 12:59:16;;;;;;;;;;;10.70;71.20;;;;;;5017476;28;94078;-39
2023/03/24 13:01:43;;;;;;;;;;;10.70;71.20;;;;;;5013887;28;95208;-39
2023/03/24 13:04:15;;;;;;;;;;;10.80;71.20;;;;;;5013041;28;92274;-38
2023/03/24 13:06:47;;;;;;;;;;;10.80;71.10;;;;;;5012207;28;94274;-39
2023/03/24 13:09:24;;;;;;;;;;;10.80;71.20;;;;;;5004174;28;94493;-39
2023/03/24 13:11:49;;;;;;;;;;;10.80;71.10;;;;;;5001457;28;94514;-39
2023/03/24 13:14:19;;;;;;;;;;;10.90;71.10;;;;;;5002358;28;94378;-39
2023/03/24 13:16:46;;;;;;;;;;;10.90;71.00;;;;;;5015957;28;92140;-39
2023/03/24 13:19:22;;;;;;;;;;;11.00;71.00;;;;;;5009877;28;94299;-39
2023/03/24 13:21:49;;;;;;;;;;;11.00;71.00;;;;;;5006665;28;94886;-39
2023/03/24 13:24:16;;;;;;;;;;;11.10;71.10;;;;;;5015771;28;91591;-39
2023/03/24 13:26:56;;;;;;;;;;;11.10;71.20;;;;;;5014675;28;92769;-39
2023/03/24 13:29:28;;;;;;;;;;;11.10;71.30;;;;;;5001736;28;93155;-39
2023/03/24 13:32:00;;;;;;;;;;;11.10;71.40;;;;;;5005206;28;93858;-38
2023/03/24 13:34:30;;;;;;;;;;;11.20;71.60;;;;;;5013328;28;93792;-39
2023/03/24 13:37:02;;;;;;;;;;;11.20;71.40;;;;;;5011337;28;92675;-39
2023/03/24 13:39:28;;;;;;;;;;;11.30;71.40;;;;;;5014708;28;92914;-39
2023/03/24 13:41:55;;;;;;;;;;;11.30;71.30;;;;;;5009733;28;94781;-39
2023/03/24 13:44:22;;;;;;;;;;;11.30;71.40;;;;;;5016344;28;92305;-39
2023/03/24 13:46:59;;;;;;;;;;;11.30;71.40;;;;;;5015759;28;94338;-39
2023/03/24 13:49:25;;;;;;;;;;;11.30;71.20;;;;;;5015431;28;93885;-39
2023/03/24 13:51:50;;;;;;;;;;;11.40;71.20;;;;;;5005876;28;92235;-39
2023/03/24 13:54:18;;;;;;;;;;;11.40;71.20;;;;;;5005491;28;94132;-39
2023/03/24 13:56:47;;;;;;;;;;;11.40;71.20;;;;;;5010699;28;93751;-38
2023/03/24 13:59:27;;;;;;;;;;;11.50;71.30;;;;;;5008856;28;94852;-39
2023/03/24 14:02:10;;;;;;;;;;;11.50;71.30;;;;;;5016800;28;96279;-38
2023/03/24 14:04:47;;;;;;;;;;;11.50;71.10;;;;;;5004514;28;92139;-39
2023/03/24 14:07:40;;;;;;;;;;;11.50;71.10;;;;;;5006756;28;93089;-39
2023/03/24 14:10:15;;;;;;;;;;;11.60;71.00;;;;;;5000401;28;94450;-39
2023/03/24 14:12:52;;;;;;;;;;;11.60;71.10;;;;;;5014607;28;92648;-39
2023/03/24 14:15:19;;;;;;;;;;;11.60;71.10;;;;;;5018931;28;94318;-39
2023/03/24 14:17:48;;;;;;;;;;;11.70;71.20;;;;;;5018651;28;92949;-38
2023/03/24 14:20:31;;;;;;;;;;;11.70;71.40;;;;;;5014903;28;93968;-39
2023/03/24 14:22:56;;;;;;;;;;;11.70;71.40;;;;;;5014946;28;94292;-39
2023/03/24 14:25:24;;;;;;;;;;;11.80;71.60;;;;;;5014438;28;92244;-39
2023/03/24 14:27:50;;;;;;;;;;;11.80;71.70;;;;;;5016563;28;92510;-39
2023/03/24 14:30:20;;;;;;;;;;;11.90;71.60;;;;;;5007230;28;94735;-38
2023/03/24 14:32:45;;;;;;;;;;;11.90;71.60;;;;;;4999977;28;92178;-38
2023/03/24 14:35:30;;;;;;;;;;;11.90;71.60;;;;;;5020449;28;95337;-39
2023/03/24 14:37:58;;;;;;;;;;;11.90;71.50;;;;;;4999506;28;94075;-39
2023/03/24 14:40:26;;;;;;;;;;;11.90;71.40;;;;;;5016838;28;91477;-38